createdAt,value
2022-10-16T00:01:44.063Z,14.80
2022-10-16T00:04:12.745Z,14.80
2022-10-16T00:06:41.478Z,14.80
2022-10-16T00:09:10.055Z,14.80
2022-10-16T00:11:41.231Z,14.80
2022-10-16T00:14:12.358Z,14.80
2022-10-16T00:16:41.417Z,14.80
2022-10-16T00:19:12.761Z,14.70
2022-10-16T00:21:41.437Z,14.70
2022-10-16T00:24:11.368Z,14.80
2022-10-16T00:26:40.994Z,14.70
2022-10-16T00:29:09.916Z,14.70
2022-10-16T00:31:38.693Z,14.70
2022-10-16T00:34:07.256Z,14.70
2022-10-16T00:36:37.047Z,14.70
2022-10-16T00:39:05.907Z,14.70
2022-10-16T00:41:35.063Z,14.60
2022-10-16T00:44:06.440Z,14.60
2022-10-16T00:46:39.807Z,14.60
2022-10-16T00:49:10.657Z,14.60
2022-10-16T00:51:43.351Z,14.60
2022-10-16T00:54:15.506Z,14.60
2022-10-16T00:56:45.387Z,14.50
2022-10-16T00:59:20.292Z,14.50
2022-10-16T01:01:48.679Z,14.50
2022-10-16T01:04:17.449Z,14.50
2022-10-16T01:06:57.419Z,14.50
2022-10-16T01:09:31.900Z,14.40
2022-10-16T01:12:07.699Z,14.40
2022-10-16T01:14:47.737Z,14.40
2022-10-16T01:17:20.627Z,14.40
2022-10-16T01:20:16.248Z,14.30
2022-10-16T01:23:03.841Z,14.30
2022-10-16T01:25:47.538Z,14.20
2022-10-16T01:28:18.108Z,14.20
2022-10-16T01:30:48.661Z,14.10
2022-10-16T01:33:21.436Z,14.10
2022-10-16T01:35:55.496Z,14.10
2022-10-16T01:38:31.679Z,14.00
2022-10-16T01:41:03.514Z,14.00
2022-10-16T01:43:38.192Z,14.00
2022-10-16T01:46:09.098Z,13.90
2022-10-16T01:48:38.778Z,13.90
2022-10-16T01:51:10.757Z,13.90
2022-10-16T01:53:40.078Z,13.80
2022-10-16T01:56:13.367Z,13.80
2022-10-16T01:58:49.489Z,13.80
2022-10-16T02:01:20.529Z,13.80
2022-10-16T02:03:52.471Z,13.80
2022-10-16T02:06:20.981Z,13.80
2022-10-16T02:08:49.577Z,13.70
2022-10-16T02:11:18.067Z,13.80
2022-10-16T02:13:53.190Z,13.70
2022-10-16T02:16:21.673Z,13.70
2022-10-16T02:18:50.800Z,13.70
2022-10-16T02:21:25.661Z,13.70
2022-10-16T02:24:01.997Z,13.60
2022-10-16T02:26:33.808Z,13.60
2022-10-16T02:29:08.878Z,13.60
2022-10-16T02:31:43.323Z,13.50
2022-10-16T02:34:14.680Z,13.50
2022-10-16T02:36:44.127Z,13.50
2022-10-16T02:39:13.447Z,13.40
2022-10-16T02:41:42.136Z,13.40
2022-10-16T02:44:12.060Z,13.40
2022-10-16T02:46:40.439Z,13.40
2022-10-16T02:49:09.016Z,13.40
2022-10-16T02:51:37.856Z,13.40
2022-10-16T02:54:06.776Z,13.50
2022-10-16T02:56:35.163Z,13.50
2022-10-16T02:59:03.721Z,13.50
2022-10-16T03:01:33.575Z,13.50
2022-10-16T03:04:02.096Z,13.50
2022-10-16T03:06:30.486Z,13.50
2022-10-16T03:08:59.066Z,13.60
2022-10-16T03:11:27.467Z,13.60
2022-10-16T03:13:56.006Z,13.60
2022-10-16T03:16:24.425Z,13.60
2022-10-16T03:18:54.261Z,13.60
2022-10-16T03:21:22.670Z,13.60
2022-10-16T03:23:51.300Z,13.60
2022-10-16T03:26:19.671Z,13.70
2022-10-16T03:28:48.232Z,13.70
2022-10-16T03:31:16.689Z,13.70
2022-10-16T03:33:45.118Z,13.70
2022-10-16T03:36:14.798Z,13.70
2022-10-16T03:38:43.201Z,13.60
2022-10-16T03:41:11.596Z,13.60
2022-10-16T03:43:40.125Z,13.60
2022-10-16T03:46:08.695Z,13.60
2022-10-16T03:48:37.098Z,13.60
2022-10-16T03:51:05.714Z,13.60
2022-10-16T03:53:35.380Z,13.50
2022-10-16T03:56:03.938Z,13.50
2022-10-16T03:58:32.307Z,13.50
2022-10-16T04:01:00.839Z,13.50
2022-10-16T04:03:29.257Z,13.50
2022-10-16T04:05:58.015Z,13.50
2022-10-16T04:08:26.490Z,13.40
2022-10-16T04:10:56.307Z,13.40
2022-10-16T04:13:24.865Z,13.40
2022-10-16T04:15:53.347Z,13.40
2022-10-16T04:18:21.876Z,13.40
2022-10-16T04:20:50.257Z,13.40
2022-10-16T04:23:18.679Z,13.40
2022-10-16T04:25:47.066Z,13.40
2022-10-16T04:28:16.817Z,13.40
2022-10-16T04:30:45.260Z,13.40
2022-10-16T04:33:13.927Z,13.40
2022-10-16T04:35:42.308Z,13.40
2022-10-16T04:38:10.756Z,13.40
2022-10-16T04:40:39.138Z,13.40
2022-10-16T04:43:08.438Z,13.40
2022-10-16T04:45:38.180Z,13.40
2022-10-16T04:48:06.747Z,13.40
2022-10-16T04:50:35.186Z,13.30
2022-10-16T04:53:07.930Z,13.30
2022-10-16T04:55:36.375Z,13.30
2022-10-16T04:58:05.026Z,13.30
2022-10-16T05:00:33.557Z,13.20
2022-10-16T05:03:07.058Z,13.20
2022-10-16T05:05:35.997Z,13.20
2022-10-16T05:08:05.389Z,13.10
2022-10-16T05:10:34.057Z,13.10
2022-10-16T05:13:02.559Z,13.10
2022-10-16T05:15:31.028Z,13.00
2022-10-16T05:18:01.892Z,13.00
2022-10-16T05:20:30.517Z,12.90
2022-10-16T05:22:59.185Z,12.90
2022-10-16T05:25:28.451Z,12.90
2022-10-16T05:27:56.885Z,12.90
2022-10-16T05:30:25.448Z,13.00
2022-10-16T05:32:53.958Z,13.10
2022-10-16T05:35:24.368Z,13.30
2022-10-16T05:37:52.865Z,13.70
2022-10-16T05:40:21.280Z,14.00
2022-10-16T05:42:49.687Z,14.40
2022-10-16T05:45:18.318Z,14.80
2022-10-16T05:47:46.758Z,15.10
2022-10-16T05:50:16.828Z,15.60
2022-10-16T05:52:46.658Z,16.00
2022-10-16T05:55:15.217Z,16.40
2022-10-16T05:57:43.649Z,16.60
2022-10-16T06:00:13.027Z,16.60
2022-10-16T06:02:41.537Z,16.40
2022-10-16T06:05:10.216Z,16.30
2022-10-16T06:07:38.730Z,16.20
2022-10-16T06:10:09.992Z,16.10
2022-10-16T06:12:38.428Z,16.10
2022-10-16T06:15:07.607Z,16.00
2022-10-16T06:17:36.027Z,16.00
2022-10-16T06:20:04.550Z,16.00
2022-10-16T06:22:32.965Z,16.00
2022-10-16T06:25:01.644Z,16.00
2022-10-16T06:27:31.356Z,15.90
2022-10-16T06:29:59.956Z,15.90
2022-10-16T06:32:29.907Z,16.10
2022-10-16T06:34:58.437Z,16.40
2022-10-16T06:37:27.378Z,16.90
2022-10-16T06:39:56.294Z,17.50
2022-10-16T06:42:25.046Z,18.00
2022-10-16T06:44:55.114Z,18.60
2022-10-16T06:47:23.753Z,19.30
2022-10-16T06:49:54.354Z,19.90
2022-10-16T06:52:23.098Z,20.50
2022-10-16T06:54:52.388Z,21.00
2022-10-16T06:57:20.808Z,21.40
2022-10-16T06:59:53.254Z,21.60
2022-10-16T07:02:25.420Z,21.60
2022-10-16T07:04:54.377Z,21.30
2022-10-16T07:07:25.658Z,21.00
2022-10-16T07:09:54.202Z,20.80
2022-10-16T07:12:22.708Z,20.80
2022-10-16T07:14:53.179Z,20.90
2022-10-16T07:17:21.617Z,21.20
2022-10-16T07:19:53.845Z,21.50
2022-10-16T07:22:22.457Z,21.90
2022-10-16T07:24:52.848Z,22.30
2022-10-16T07:27:23.285Z,22.80
2022-10-16T07:29:51.859Z,23.30
2022-10-16T07:32:20.282Z,23.50
2022-10-16T07:34:50.137Z,23.40
2022-10-16T07:37:18.569Z,23.10
2022-10-16T07:39:47.158Z,22.70
2022-10-16T07:42:15.607Z,22.10
2022-10-16T07:44:44.137Z,21.70
2022-10-16T07:47:12.591Z,21.20
2022-10-16T07:49:41.187Z,20.80
2022-10-16T07:52:11.057Z,20.50
2022-10-16T07:54:39.603Z,20.10
2022-10-16T07:57:08.007Z,19.90
2022-10-16T07:59:36.972Z,19.60
2022-10-16T08:02:05.425Z,19.50
2022-10-16T08:04:34.046Z,19.30
2022-10-16T08:07:02.517Z,19.10
2022-10-16T08:09:32.436Z,19.00
2022-10-16T08:12:02.435Z,18.90
2022-10-16T08:14:31.258Z,18.80
2022-10-16T08:16:59.721Z,18.70
2022-10-16T08:19:28.330Z,18.90
2022-10-16T08:21:56.828Z,19.10
2022-10-16T08:24:25.326Z,19.50
2022-10-16T08:26:57.307Z,20.00
2022-10-16T08:29:25.848Z,20.50
2022-10-16T08:31:54.326Z,21.10
2022-10-16T08:34:22.889Z,21.70
2022-10-16T08:36:51.357Z,22.40
2022-10-16T08:39:19.916Z,23.00
2022-10-16T08:42:28.464Z,23.50
2022-10-16T08:45:11.188Z,24.20
2022-10-16T08:47:49.749Z,24.80
2022-10-16T08:50:25.116Z,25.20
2022-10-16T08:52:54.061Z,25.50
2022-10-16T08:55:34.560Z,25.60
2022-10-16T08:58:04.359Z,25.60
2022-10-16T09:00:33.005Z,25.50
2022-10-16T09:03:12.708Z,25.40
2022-10-16T09:06:09.978Z,25.20
2022-10-16T09:08:50.573Z,25.10
2022-10-16T09:11:28.897Z,24.70
2022-10-16T09:14:07.011Z,24.50
2022-10-16T09:16:39.058Z,24.40
2022-10-16T09:19:25.566Z,24.40
2022-10-16T09:21:54.247Z,24.40
2022-10-16T09:24:27.194Z,24.50
2022-10-16T09:26:57.834Z,24.70
2022-10-16T09:29:28.016Z,25.10
2022-10-16T09:32:07.716Z,25.30
2022-10-16T09:34:41.407Z,25.30
2022-10-16T09:37:15.714Z,25.20
2022-10-16T09:39:48.447Z,25.00
2022-10-16T09:42:19.336Z,24.70
2022-10-16T09:44:53.127Z,24.40
2022-10-16T09:47:25.301Z,24.00
2022-10-16T09:49:55.197Z,23.60
2022-10-16T09:52:24.650Z,23.30
2022-10-16T09:54:54.858Z,23.00
2022-10-16T09:57:25.098Z,22.80
2022-10-16T09:59:56.947Z,22.60
2022-10-16T10:02:32.987Z,22.50
2022-10-16T10:05:01.667Z,22.30
2022-10-16T10:07:34.206Z,22.10
2022-10-16T10:10:05.039Z,21.90
2022-10-16T10:12:36.777Z,21.70
2022-10-16T10:15:12.660Z,21.60
2022-10-16T10:17:49.477Z,21.50
2022-10-16T10:20:29.678Z,21.40
2022-10-16T10:22:59.109Z,21.40
2022-10-16T10:25:44.768Z,21.40
2022-10-16T10:28:53.335Z,21.40
2022-10-16T10:31:29.358Z,21.50
2022-10-16T10:34:03.417Z,21.80
2022-10-16T10:36:35.790Z,22.30
2022-10-16T10:39:10.793Z,23.00
2022-10-16T10:42:05.067Z,23.60
2022-10-16T10:44:51.119Z,24.30
2022-10-16T10:47:29.237Z,24.70
2022-10-16T10:50:09.177Z,25.10
2022-10-16T10:52:53.199Z,25.40
2022-10-16T10:55:29.188Z,25.80
2022-10-16T10:58:12.548Z,26.10
2022-10-16T11:00:52.400Z,26.40
2022-10-16T11:03:36.880Z,26.60
2022-10-16T11:06:10.429Z,26.80
2022-10-16T11:08:43.320Z,26.90
2022-10-16T11:11:17.528Z,26.90
2022-10-16T11:13:54.326Z,26.70
2022-10-16T11:16:26.469Z,26.30
2022-10-16T11:19:02.161Z,25.80
2022-10-16T11:21:35.763Z,25.50
2022-10-16T11:24:12.656Z,25.20
2022-10-16T11:26:45.239Z,24.90
2022-10-16T11:29:20.232Z,24.70
2022-10-16T11:31:52.398Z,24.60
2022-10-16T11:34:31.767Z,24.60
2022-10-16T11:37:10.931Z,24.70
2022-10-16T11:39:43.317Z,24.90
2022-10-16T11:42:15.792Z,25.10
2022-10-16T11:44:54.011Z,25.20
2022-10-16T11:47:59.874Z,25.30
2022-10-16T11:50:36.798Z,25.20
2022-10-16T11:53:15.889Z,25.10
2022-10-16T11:55:47.443Z,24.90
2022-10-16T11:58:27.471Z,24.70
2022-10-16T12:01:02.561Z,24.40
2022-10-16T12:03:36.613Z,24.20
2022-10-16T12:06:21.371Z,24.00
2022-10-16T12:08:50.277Z,23.90
2022-10-16T12:11:33.698Z,23.60
2022-10-16T12:14:24.737Z,23.40
2022-10-16T12:16:55.759Z,23.20
2022-10-16T12:19:25.839Z,23.10
2022-10-16T12:21:59.727Z,22.90
2022-10-16T12:24:36.437Z,22.80
2022-10-16T12:27:07.049Z,22.70
2022-10-16T12:29:39.816Z,22.80
2022-10-16T12:32:41.944Z,23.00
2022-10-16T12:35:22.229Z,23.40
2022-10-16T12:37:52.995Z,24.10
2022-10-16T12:40:33.279Z,24.70
2022-10-16T12:43:12.889Z,25.30
2022-10-16T12:45:41.518Z,25.90
2022-10-16T12:48:29.231Z,26.50
2022-10-16T12:51:23.888Z,27.20
2022-10-16T12:54:02.438Z,27.70
2022-10-16T12:56:43.129Z,28.10
2022-10-16T12:59:20.238Z,28.30
2022-10-16T13:02:03.220Z,28.40
2022-10-16T13:04:47.775Z,28.40
2022-10-16T13:07:36.069Z,28.20
2022-10-16T13:10:25.737Z,27.90
2022-10-16T13:13:15.877Z,27.60
2022-10-16T13:15:56.449Z,27.30
2022-10-16T13:18:31.758Z,27.20
2022-10-16T13:21:13.668Z,27.20
2022-10-16T13:23:50.336Z,27.20
2022-10-16T13:26:30.800Z,27.20
2022-10-16T13:29:02.667Z,27.30
2022-10-16T13:31:32.428Z,27.40
2022-10-16T13:34:02.506Z,27.60
2022-10-16T13:36:33.128Z,27.70
2022-10-16T13:39:08.676Z,27.90
2022-10-16T13:41:38.535Z,28.00
2022-10-16T13:44:14.068Z,28.00
2022-10-16T13:46:42.520Z,28.00
2022-10-16T13:49:16.356Z,28.10
2022-10-16T13:51:57.176Z,28.20
2022-10-16T13:54:26.530Z,28.20
2022-10-16T13:57:03.464Z,28.20
2022-10-16T13:59:39.980Z,28.20
2022-10-16T14:02:20.810Z,28.20
2022-10-16T14:04:50.087Z,28.30
2022-10-16T14:07:25.315Z,28.30
2022-10-16T14:09:55.699Z,28.20
2022-10-16T14:12:28.154Z,28.20
2022-10-16T14:14:59.502Z,28.10
2022-10-16T14:17:30.248Z,28.10
2022-10-16T14:20:04.115Z,28.00
2022-10-16T14:22:36.131Z,27.90
2022-10-16T14:25:23.799Z,27.90
2022-10-16T14:30:32.249Z,27.80
2022-10-16T14:33:02.498Z,27.70
2022-10-16T14:35:33.400Z,27.70
2022-10-16T14:38:03.518Z,27.60
2022-10-16T14:40:33.775Z,27.50
2022-10-16T14:43:04.788Z,27.40
2022-10-16T14:45:36.416Z,27.30
2022-10-16T14:48:08.471Z,27.20
2022-10-16T14:50:36.917Z,26.90
2022-10-16T14:53:13.262Z,26.70
2022-10-16T14:55:42.831Z,26.50
2022-10-16T14:58:17.406Z,26.30
2022-10-16T15:00:45.950Z,26.00
2022-10-16T15:03:14.652Z,25.80
2022-10-16T15:05:43.427Z,25.60
2022-10-16T15:08:13.425Z,25.40
2022-10-16T15:10:43.759Z,25.10
2022-10-16T15:13:15.807Z,24.70
2022-10-16T15:15:46.132Z,24.20
2022-10-16T15:18:15.888Z,23.70
2022-10-16T15:20:44.362Z,23.30
2022-10-16T15:23:17.171Z,22.90
2022-10-16T15:25:47.718Z,22.40
2022-10-16T15:28:18.712Z,22.10
2022-10-16T15:30:48.148Z,21.70
2022-10-16T15:33:19.250Z,21.40
2022-10-16T15:35:49.931Z,21.10
2022-10-16T15:38:19.467Z,20.90
2022-10-16T15:40:48.486Z,20.60
2022-10-16T15:43:18.777Z,20.40
2022-10-16T15:45:54.428Z,20.20
2022-10-16T15:48:22.850Z,20.00
2022-10-16T15:50:51.260Z,19.90
2022-10-16T15:53:19.698Z,19.70
2022-10-16T15:55:48.117Z,19.60
2022-10-16T15:58:17.988Z,19.50
2022-10-16T16:00:47.039Z,19.30
2022-10-16T16:03:16.020Z,19.20
2022-10-16T16:05:46.727Z,19.10
2022-10-16T16:08:15.500Z,19.00
2022-10-16T16:10:43.917Z,18.90
2022-10-16T16:13:12.689Z,18.80
2022-10-16T16:15:43.537Z,18.70
2022-10-16T16:18:11.986Z,18.60
2022-10-16T16:20:40.375Z,18.50
2022-10-16T16:23:08.936Z,18.40
2022-10-16T16:25:37.401Z,18.30
2022-10-16T16:28:05.881Z,18.20
2022-10-16T16:30:34.349Z,18.10
2022-10-16T16:33:04.531Z,18.00
2022-10-16T16:35:32.936Z,17.90
2022-10-16T16:38:01.496Z,17.80
2022-10-16T16:40:29.897Z,17.80
2022-10-16T16:42:58.277Z,17.70
2022-10-16T16:47:55.186Z,17.50
2022-10-16T16:50:24.986Z,17.40
2022-10-16T16:52:53.428Z,17.40
2022-10-16T16:55:21.870Z,17.30
2022-10-16T16:57:50.639Z,17.20
2022-10-16T17:00:19.348Z,17.10
2022-10-16T17:02:50.887Z,17.10
2022-10-16T17:05:19.822Z,17.00
2022-10-16T17:07:49.539Z,16.90
2022-10-16T17:10:18.108Z,16.90
2022-10-16T17:12:47.232Z,16.80
2022-10-16T17:15:15.877Z,16.80
2022-10-16T17:17:44.338Z,16.70
2022-10-16T17:20:12.997Z,16.60
2022-10-16T17:22:41.664Z,16.60
2022-10-16T17:25:11.708Z,16.50
2022-10-16T17:27:40.140Z,16.40
2022-10-16T17:30:09.366Z,16.40
2022-10-16T17:32:37.856Z,16.30
2022-10-16T17:35:06.939Z,16.20
2022-10-16T17:37:35.407Z,16.10
2022-10-16T17:40:04.126Z,16.00
2022-10-16T17:42:33.888Z,16.00
2022-10-16T17:45:02.467Z,15.90
2022-10-16T17:47:31.037Z,15.80
2022-10-16T17:49:59.719Z,15.70
2022-10-16T17:52:28.625Z,15.70
2022-10-16T17:54:58.487Z,15.60
2022-10-16T17:57:27.023Z,15.50
2022-10-16T17:59:57.396Z,15.40
2022-10-16T18:02:26.214Z,15.40
2022-10-16T18:04:55.856Z,15.30
2022-10-16T18:07:24.576Z,15.20
2022-10-16T18:10:21.357Z,15.20
2022-10-16T18:12:41.810Z,15.10
2022-10-16T18:15:12.957Z,15.00
2022-10-16T18:17:41.433Z,14.90
2022-10-16T18:20:10.927Z,14.90
2022-10-16T18:22:39.425Z,14.80
2022-10-16T18:25:08.682Z,14.80
2022-10-16T18:27:37.109Z,14.70
2022-10-16T18:30:06.127Z,14.70
2022-10-16T18:32:35.967Z,14.60
2022-10-16T18:35:04.593Z,14.60
2022-10-16T18:37:33.279Z,14.60
2022-10-16T18:40:01.836Z,14.50
2022-10-16T18:42:30.298Z,14.50
2022-10-16T18:44:58.851Z,14.50
2022-10-16T18:47:27.677Z,14.40
2022-10-16T18:49:57.716Z,14.40
2022-10-16T18:52:27.110Z,14.40
2022-10-16T18:54:58.560Z,14.30
2022-10-16T18:57:30.986Z,14.30
2022-10-16T18:59:59.574Z,14.30
2022-10-16T19:02:28.026Z,14.30
2022-10-16T19:04:57.908Z,14.20
2022-10-16T19:07:27.499Z,14.20
2022-10-16T19:09:56.196Z,14.20
2022-10-16T19:12:30.890Z,14.20
2022-10-16T19:14:59.407Z,14.20
2022-10-16T19:17:27.857Z,14.10
2022-10-16T19:19:57.786Z,14.10
2022-10-16T19:22:43.425Z,14.10
2022-10-16T19:25:11.947Z,14.10
2022-10-16T19:27:40.359Z,14.10
2022-10-16T19:30:09.916Z,14.10
2022-10-16T19:32:38.397Z,14.10
2022-10-16T19:35:09.566Z,14.10
2022-10-16T19:37:38.317Z,14.10
2022-10-16T19:40:08.047Z,14.10
2022-10-16T19:42:43.168Z,14.20
2022-10-16T19:45:12.736Z,14.10
2022-10-16T19:47:41.268Z,14.10
2022-10-16T19:50:12.597Z,14.10
2022-10-16T19:52:41.077Z,14.20
2022-10-16T19:55:10.006Z,14.10
2022-10-16T19:57:39.457Z,14.10
2022-10-16T20:00:10.018Z,14.10
2022-10-16T20:02:38.574Z,14.10
2022-10-16T20:05:07.848Z,14.10
2022-10-16T20:07:37.875Z,14.10
2022-10-16T20:10:07.307Z,14.10
2022-10-16T20:12:38.111Z,14.00
2022-10-16T20:15:07.298Z,14.00
2022-10-16T20:17:35.725Z,14.00
2022-10-16T20:20:04.780Z,14.00
2022-10-16T20:22:33.287Z,14.00
2022-10-16T20:25:05.963Z,14.00
2022-10-16T20:27:38.307Z,14.00
2022-10-16T20:30:07.471Z,13.90
2022-10-16T20:32:35.887Z,13.90
2022-10-16T20:35:07.185Z,13.80
2022-10-16T20:37:36.498Z,13.80
2022-10-16T20:40:07.438Z,13.70
2022-10-16T20:42:35.837Z,13.70
2022-10-16T20:45:04.628Z,13.60
2022-10-16T20:47:33.035Z,13.60
2022-10-16T20:50:01.599Z,13.50
2022-10-16T20:52:33.578Z,13.50
2022-10-16T20:55:02.118Z,13.50
2022-10-16T20:57:31.969Z,13.40
2022-10-16T21:00:00.497Z,13.40
2022-10-16T21:02:28.928Z,13.40
2022-10-16T21:04:57.518Z,13.40
2022-10-16T21:07:26.399Z,13.30
2022-10-16T21:09:56.887Z,13.30
2022-10-16T21:12:26.487Z,13.30
2022-10-16T21:15:13.896Z,13.20
2022-10-16T21:17:43.655Z,13.20
2022-10-16T21:20:12.290Z,13.10
2022-10-16T21:22:40.750Z,13.10
2022-10-16T21:25:09.891Z,13.10
2022-10-16T21:27:39.132Z,13.10
2022-10-16T21:30:10.986Z,13.00
2022-10-16T21:32:40.025Z,13.00
2022-10-16T21:35:09.937Z,12.90
2022-10-16T21:37:38.349Z,12.90
2022-10-16T21:40:07.927Z,12.90
2022-10-16T21:42:36.368Z,12.80
2022-10-16T21:45:05.147Z,12.80
2022-10-16T21:47:35.499Z,12.80
2022-10-16T21:50:04.052Z,12.80
2022-10-16T21:52:32.798Z,12.70
2022-10-16T21:55:01.361Z,12.70
2022-10-16T21:57:30.132Z,12.70
2022-10-16T21:59:58.839Z,12.70
2022-10-16T22:02:27.358Z,12.60
2022-10-16T22:04:57.275Z,12.60
2022-10-16T22:07:26.123Z,12.60
2022-10-16T22:09:54.821Z,12.60
2022-10-16T22:12:23.277Z,12.60
2022-10-16T22:14:51.816Z,12.60
2022-10-16T22:17:20.247Z,12.60
2022-10-16T22:19:48.937Z,12.60
2022-10-16T22:22:18.608Z,12.60
2022-10-16T22:24:47.257Z,12.60
2022-10-16T22:27:15.768Z,12.50
2022-10-16T22:29:44.206Z,12.50
2022-10-16T22:32:12.646Z,12.50
2022-10-16T22:34:41.186Z,12.50
2022-10-16T22:37:09.553Z,12.50
2022-10-16T22:39:39.546Z,12.50
2022-10-16T22:42:08.118Z,12.50
2022-10-16T22:44:36.776Z,12.50
2022-10-16T22:47:05.198Z,12.50
2022-10-16T22:49:33.700Z,12.50
2022-10-16T22:52:02.181Z,12.50
2022-10-16T22:54:30.768Z,12.40
2022-10-16T22:57:00.516Z,12.40
2022-10-16T22:59:28.997Z,12.40
2022-10-16T23:01:57.477Z,12.40
2022-10-16T23:04:25.932Z,12.40
2022-10-16T23:06:55.182Z,12.40
2022-10-16T23:09:23.857Z,12.40
2022-10-16T23:11:52.604Z,12.40
2022-10-16T23:14:23.310Z,12.30
2022-10-16T23:16:51.877Z,12.30
2022-10-16T23:19:20.337Z,12.30
2022-10-16T23:21:48.798Z,12.30
2022-10-16T23:24:17.421Z,12.30
2022-10-16T23:26:45.830Z,12.30
2022-10-16T23:29:14.468Z,12.30
2022-10-16T23:31:44.299Z,12.30
2022-10-16T23:34:12.830Z,12.30
2022-10-16T23:36:43.123Z,12.30
2022-10-16T23:39:11.595Z,12.30
2022-10-16T23:41:40.157Z,12.30
2022-10-16T23:44:08.697Z,12.30
2022-10-16T23:46:37.116Z,12.30
2022-10-16T23:49:06.950Z,12.30
2022-10-16T23:51:35.368Z,12.30
2022-10-16T23:54:03.807Z,12.30
2022-10-16T23:56:32.236Z,12.30
2022-10-16T23:59:00.817Z,12.30
